createdAt,value
2023-03-05T00:03:09.385Z,12.73
2023-03-05T00:08:01.288Z,10.98
2023-03-05T00:12:53.042Z,12.07
2023-03-05T00:17:44.734Z,11.13
2023-03-05T00:22:36.991Z,13.85
2023-03-05T00:27:28.684Z,11.20
2023-03-05T00:32:20.401Z,11.20
2023-03-05T00:37:12.273Z,11.02
2023-03-05T00:42:04.081Z,10.75
2023-03-05T00:46:55.720Z,11.27
2023-03-05T00:51:47.523Z,10.75
2023-03-05T00:56:39.226Z,10.10
2023-03-05T01:01:31.072Z,9.52
2023-03-05T01:06:22.863Z,10.20
2023-03-05T01:11:14.575Z,10.13
2023-03-05T01:16:06.994Z,9.50
2023-03-05T01:20:58.960Z,10.27
2023-03-05T01:25:58.453Z,10.10
2023-03-05T01:30:50.346Z,10.35
2023-03-05T01:35:42.216Z,9.85
2023-03-05T01:40:33.959Z,9.90
2023-03-05T01:45:26.022Z,10.05
2023-03-05T01:50:22.821Z,9.68
2023-03-05T01:55:18.024Z,9.27
2023-03-05T02:00:32.238Z,9.05
2023-03-05T02:05:30.737Z,9.50
2023-03-05T02:15:16.860Z,9.60
2023-03-05T02:20:15.827Z,9.63
2023-03-05T02:25:21.183Z,8.40
2023-03-05T02:30:13.327Z,9.05
2023-03-05T02:35:05.366Z,8.85
2023-03-05T02:39:57.247Z,8.80
2023-03-05T02:44:49.260Z,8.73
2023-03-05T02:49:41.342Z,9.57
2023-03-05T02:54:33.034Z,9.18
2023-03-05T02:59:24.855Z,8.75
2023-03-05T03:04:16.677Z,11.07
2023-03-05T03:09:08.335Z,9.05
2023-03-05T03:14:00.577Z,8.02
2023-03-05T03:18:52.198Z,9.18
2023-03-05T03:23:43.847Z,8.43
2023-03-05T03:28:35.525Z,9.18
2023-03-05T03:33:27.160Z,8.27
2023-03-05T03:38:19.009Z,9.23
2023-03-05T03:43:10.859Z,8.98
2023-03-05T03:48:02.817Z,7.88
2023-03-05T03:52:54.711Z,9.23
2023-03-05T03:57:46.405Z,8.05
2023-03-05T04:02:38.172Z,7.47
2023-03-05T04:07:29.951Z,8.10
2023-03-05T04:12:21.718Z,8.40
2023-03-05T04:17:14.999Z,7.55
2023-03-05T04:22:10.714Z,8.25
2023-03-05T04:27:02.405Z,8.13
2023-03-05T04:31:54.080Z,8.30
2023-03-05T04:36:45.796Z,7.40
2023-03-05T04:41:37.444Z,7.22
2023-03-05T04:46:29.201Z,7.57
2023-03-05T04:51:20.841Z,7.57
2023-03-05T04:56:12.563Z,8.00
2023-03-05T05:01:05.733Z,7.65
2023-03-05T05:05:59.776Z,8.02
2023-03-05T05:10:59.634Z,8.18
2023-03-05T05:15:51.428Z,7.47
2023-03-05T05:20:43.161Z,7.80
2023-03-05T05:25:34.834Z,7.32
2023-03-05T05:30:26.577Z,7.68
2023-03-05T05:35:18.486Z,7.07
2023-03-05T05:40:10.854Z,6.80
2023-03-05T05:45:03.283Z,6.47
2023-03-05T05:49:55.717Z,5.85
2023-03-05T05:54:47.878Z,8.63
2023-03-05T05:59:40.120Z,6.28
2023-03-05T06:04:31.858Z,7.10
2023-03-05T06:09:23.566Z,6.40
2023-03-05T06:14:15.280Z,6.50
2023-03-05T06:19:07.035Z,6.63
2023-03-05T06:23:58.876Z,6.72
2023-03-05T06:28:50.837Z,6.30
2023-03-05T06:33:42.995Z,6.22
2023-03-05T06:38:35.234Z,7.57
2023-03-05T06:43:26.995Z,6.55
2023-03-05T06:48:18.681Z,6.68
2023-03-05T06:53:10.313Z,6.68
2023-03-05T06:58:02.004Z,6.43
2023-03-05T07:02:53.633Z,5.88
2023-03-05T07:07:45.307Z,6.03
2023-03-05T07:12:38.867Z,5.75
2023-03-05T07:17:30.547Z,6.45
2023-03-05T07:22:22.197Z,7.90
2023-03-05T07:27:13.869Z,6.43
2023-03-05T07:32:06.142Z,6.95
2023-03-05T07:36:57.865Z,5.75
2023-03-05T07:41:51.572Z,6.07
2023-03-05T07:46:51.398Z,6.30
2023-03-05T07:51:43.097Z,5.55
2023-03-05T07:56:36.045Z,6.00
2023-03-05T08:01:28.908Z,6.53
2023-03-05T08:06:20.580Z,6.22
2023-03-05T08:11:14.261Z,5.03
2023-03-05T08:16:08.731Z,5.90
2023-03-05T08:21:00.866Z,6.38
2023-03-05T08:25:52.683Z,6.05
2023-03-05T08:30:44.379Z,5.68
2023-03-05T08:35:36.087Z,6.32
2023-03-05T08:40:27.825Z,6.53
2023-03-05T08:45:19.660Z,7.65
2023-03-05T08:50:12.069Z,7.97
2023-03-05T08:55:04.203Z,7.25
2023-03-05T08:59:55.838Z,7.95
2023-03-05T09:04:47.507Z,7.80
2023-03-05T09:09:39.194Z,8.48
2023-03-05T09:14:30.976Z,7.78
2023-03-05T09:19:22.645Z,8.55
2023-03-05T09:24:14.457Z,8.02
2023-03-05T09:29:07.707Z,8.00
2023-03-05T09:33:59.358Z,7.60
2023-03-05T09:38:51.413Z,7.82
2023-03-05T09:44:11.096Z,10.82
2023-03-05T09:49:20.843Z,10.18
2023-03-05T09:54:17.851Z,11.77
2023-03-05T09:59:28.680Z,11.75
2023-03-05T10:04:37.906Z,12.23
2023-03-05T10:10:04.701Z,11.70
2023-03-05T10:14:57.254Z,12.07
2023-03-05T10:20:31.685Z,12.10
2023-03-05T10:25:35.266Z,13.73
2023-03-05T10:31:08.611Z,13.43
2023-03-05T10:36:15.282Z,17.10
2023-03-05T10:41:44.215Z,16.15
2023-03-05T10:46:37.517Z,15.98
2023-03-05T10:51:44.452Z,15.02
2023-03-05T10:56:37.173Z,15.70
2023-03-05T11:01:31.075Z,14.88
2023-03-05T11:06:39.569Z,16.02
2023-03-05T11:11:33.320Z,16.42
2023-03-05T11:16:27.996Z,17.75
2023-03-05T11:21:27.745Z,16.52
2023-03-05T11:26:23.167Z,16.25
2023-03-05T11:31:18.387Z,16.42
2023-03-05T11:36:34.201Z,15.48
2023-03-05T11:41:34.247Z,15.75
2023-03-05T11:46:26.248Z,21.15
2023-03-05T11:51:23.419Z,20.20
2023-03-05T11:56:24.326Z,18.88
2023-03-05T12:01:22.158Z,20.30
2023-03-05T12:06:38.846Z,21.27
2023-03-05T12:11:32.907Z,23.42
2023-03-05T12:16:44.499Z,20.23
2023-03-05T12:21:37.926Z,22.77
2023-03-05T12:26:59.483Z,24.17
2023-03-05T12:31:51.297Z,22.70
2023-03-05T12:36:43.104Z,25.70
2023-03-05T12:41:35.135Z,26.08
2023-03-05T12:46:29.477Z,24.13
2023-03-05T12:51:34.540Z,24.40
2023-03-05T12:56:31.231Z,20.25
2023-03-05T13:01:36.167Z,21.05
2023-03-05T13:06:36.737Z,23.52
2023-03-05T13:11:31.073Z,24.33
2023-03-05T13:16:26.493Z,20.58
2023-03-05T13:21:20.538Z,19.60
2023-03-05T13:26:18.696Z,20.20
2023-03-05T13:31:17.856Z,19.30
2023-03-05T13:36:16.162Z,20.02
2023-03-05T13:41:19.965Z,18.23
2023-03-05T13:46:11.739Z,18.45
2023-03-05T13:51:07.007Z,19.08
2023-03-05T13:56:05.947Z,21.23
2023-03-05T14:01:21.847Z,24.02
2023-03-05T14:06:19.020Z,21.13
2023-03-05T14:11:18.716Z,21.50
2023-03-05T14:16:23.742Z,21.83
2023-03-05T14:21:15.479Z,22.25
2023-03-05T14:26:29.243Z,19.77
2023-03-05T14:31:22.772Z,22.55
2023-03-05T14:36:14.691Z,22.40
2023-03-05T14:41:34.946Z,21.92
2023-03-05T14:46:27.179Z,21.52
2023-03-05T14:51:19.004Z,21.50
2023-03-05T14:56:22.298Z,19.88
2023-03-05T15:01:14.135Z,19.25
2023-03-05T15:06:06.118Z,20.02
2023-03-05T15:10:58.507Z,21.02
2023-03-05T15:15:52.357Z,19.17
2023-03-05T15:20:45.067Z,17.88
2023-03-05T15:25:36.747Z,18.92
2023-03-05T15:30:30.230Z,17.85
2023-03-05T15:35:23.276Z,16.30
2023-03-05T15:40:15.134Z,16.13
2023-03-05T15:45:09.116Z,17.15
2023-03-05T15:50:00.882Z,17.33
2023-03-05T15:54:52.554Z,16.58
2023-03-05T15:59:44.374Z,16.38
2023-03-05T16:04:36.055Z,15.82
2023-03-05T16:09:35.291Z,16.27
2023-03-05T16:14:28.766Z,16.42
2023-03-05T16:19:22.606Z,15.80
2023-03-05T16:24:14.355Z,16.92
2023-03-05T16:29:06.533Z,15.32
2023-03-05T16:33:58.191Z,14.52
2023-03-05T16:38:51.301Z,13.98
2023-03-05T16:43:44.301Z,15.23
2023-03-05T16:48:37.628Z,13.00
2023-03-05T16:53:30.494Z,13.05
2023-03-05T16:58:22.211Z,14.18
2023-03-05T17:03:13.970Z,15.77
2023-03-05T17:08:06.094Z,15.10
2023-03-05T17:12:57.871Z,16.30
2023-03-05T17:17:50.181Z,12.52
2023-03-05T17:22:42.048Z,9.10
2023-03-05T17:27:35.559Z,9.52
2023-03-05T17:32:28.592Z,7.78
2023-03-05T17:37:20.565Z,8.05
2023-03-05T17:42:12.393Z,7.70
2023-03-05T17:47:04.451Z,7.15
2023-03-05T17:51:56.607Z,7.30
2023-03-05T17:56:48.468Z,7.70
2023-03-05T18:01:40.260Z,8.70
2023-03-05T18:06:33.515Z,9.30
2023-03-05T18:11:25.354Z,8.07
2023-03-05T18:16:18.280Z,8.35
2023-03-05T18:21:10.055Z,8.00
2023-03-05T18:26:01.771Z,7.90
2023-03-05T18:30:53.476Z,8.05
2023-03-05T18:35:45.471Z,10.13
2023-03-05T18:40:39.635Z,8.43
2023-03-05T18:45:32.506Z,9.60
2023-03-05T18:50:27.886Z,11.52
2023-03-05T18:55:26.275Z,14.40
2023-03-05T19:00:25.100Z,13.65
2023-03-05T19:05:17.763Z,12.75
2023-03-05T19:10:11.472Z,13.10
2023-03-05T19:15:04.287Z,15.57
2023-03-05T19:19:58.836Z,12.73
2023-03-05T19:24:50.555Z,14.23
2023-03-05T19:29:43.860Z,15.27
2023-03-05T19:34:36.001Z,21.58
2023-03-05T19:39:27.704Z,17.45
2023-03-05T19:44:19.780Z,19.90
2023-03-05T19:49:11.512Z,18.17
2023-03-05T19:54:06.241Z,18.15
2023-03-05T19:58:58.028Z,15.30
2023-03-05T20:03:55.790Z,13.98
2023-03-05T20:08:48.176Z,15.40
2023-03-05T20:13:40.790Z,13.98
2023-03-05T20:18:32.526Z,16.98
2023-03-05T20:23:24.929Z,16.65
2023-03-05T20:28:16.686Z,14.77
2023-03-05T20:33:08.410Z,14.93
2023-03-05T20:38:24.978Z,13.90
2023-03-05T20:43:17.432Z,14.02
2023-03-05T20:48:09.309Z,14.10
2023-03-05T20:53:01.214Z,14.15
2023-03-05T20:57:52.897Z,11.93
2023-03-05T21:02:44.611Z,12.30
2023-03-05T21:07:36.393Z,11.95
2023-03-05T21:12:28.994Z,12.82
2023-03-05T21:17:20.694Z,11.80
2023-03-05T21:22:12.332Z,11.85
2023-03-05T21:27:03.957Z,12.55
2023-03-05T21:31:55.873Z,12.05
2023-03-05T21:36:47.578Z,10.40
2023-03-05T21:41:39.297Z,11.15
2023-03-05T21:46:31.262Z,11.52
2023-03-05T21:52:17.230Z,11.55
2023-03-05T21:57:11.048Z,12.30
2023-03-05T22:02:02.733Z,10.60
2023-03-05T22:06:54.443Z,11.77
2023-03-05T22:11:46.189Z,11.45
2023-03-05T22:16:37.994Z,10.07
2023-03-05T22:21:30.896Z,10.63
2023-03-05T22:26:24.160Z,9.85
2023-03-05T22:31:27.356Z,9.85
2023-03-05T22:36:19.474Z,10.05
2023-03-05T22:41:13.990Z,10.07
2023-03-05T22:46:23.411Z,11.27
2023-03-05T22:51:16.085Z,9.55
2023-03-05T22:56:08.803Z,8.70
2023-03-05T23:01:00.474Z,9.80
2023-03-05T23:05:52.162Z,10.10
2023-03-05T23:10:43.887Z,10.45
2023-03-05T23:15:37.675Z,10.00
2023-03-05T23:20:32.575Z,10.90
2023-03-05T23:25:26.833Z,10.30
2023-03-05T23:30:20.067Z,9.50
2023-03-05T23:35:13.780Z,9.82
2023-03-05T23:40:07.129Z,12.50
2023-03-05T23:44:58.921Z,10.77
2023-03-05T23:49:50.606Z,10.88
2023-03-05T23:54:42.318Z,9.85
2023-03-05T23:59:35.325Z,8.73
